sensor_id;sensor_type;location;lat;lon;timestamp;P1;durP1;ratioP1;P2;durP2;ratioP2
2213;SDS011;1113;42.018;23.986;2023-12-07T00:02:21;44.38;;;27.33;;
2213;SDS011;1113;42.018;23.986;2023-12-07T00:04:50;46.15;;;29.63;;
2213;SDS011;1113;42.018;23.986;2023-12-07T00:07:17;41.15;;;27.27;;
2213;SDS011;1113;42.018;23.986;2023-12-07T00:09:44;43.05;;;29.20;;
2213;SDS011;1113;42.018;23.986;2023-12-07T00:12:12;43.30;;;27.40;;
2213;SDS011;1113;42.018;23.986;2023-12-07T00:14:39;45.30;;;28.13;;
2213;SDS011;1113;42.018;23.986;2023-12-07T00:17:07;47.75;;;27.17;;
2213;SDS011;1113;42.018;23.986;2023-12-07T00:19:34;37.67;;;22.90;;
2213;SDS011;1113;42.018;23.986;2023-12-07T00:22:03;41.80;;;25.27;;
2213;SDS011;1113;42.018;23.986;2023-12-07T00:24:30;41.55;;;25.65;;
2213;SDS011;1113;42.018;23.986;2023-12-07T00:26:58;40.03;;;24.88;;
2213;SDS011;1113;42.018;23.986;2023-12-07T00:29:25;37.13;;;24.48;;
2213;SDS011;1113;42.018;23.986;2023-12-07T00:31:52;42.22;;;25.95;;
2213;SDS011;1113;42.018;23.986;2023-12-07T00:34:20;42.35;;;25.55;;
2213;SDS011;1113;42.018;23.986;2023-12-07T00:36:48;37.08;;;25.25;;
2213;SDS011;1113;42.018;23.986;2023-12-07T00:39:17;44.72;;;26.85;;
2213;SDS011;1113;42.018;23.986;2023-12-07T00:41:44;36.05;;;23.60;;
2213;SDS011;1113;42.018;23.986;2023-12-07T00:44:12;40.75;;;24.95;;
2213;SDS011;1113;42.018;23.986;2023-12-07T00:46:40;39.50;;;23.83;;
2213;SDS011;1113;42.018;23.986;2023-12-07T00:49:07;38.50;;;23.63;;
2213;SDS011;1113;42.018;23.986;2023-12-07T00:51:35;55.15;;;29.63;;
2213;SDS011;1113;42.018;23.986;2023-12-07T00:54:02;43.88;;;25.77;;
2213;SDS011;1113;42.018;23.986;2023-12-07T00:56:31;44.97;;;25.40;;
2213;SDS011;1113;42.018;23.986;2023-12-07T00:58:58;41.50;;;24.05;;
2213;SDS011;1113;42.018;23.986;2023-12-07T01:01:25;39.47;;;24.30;;
2213;SDS011;1113;42.018;23.986;2023-12-07T01:03:54;40.17;;;21.05;;
2213;SDS011;1113;42.018;23.986;2023-12-07T01:06:21;40.00;;;23.90;;
2213;SDS011;1113;42.018;23.986;2023-12-07T01:08:48;44.35;;;27.48;;
2213;SDS011;1113;42.018;23.986;2023-12-07T01:11:14;41.25;;;26.25;;
2213;SDS011;1113;42.018;23.986;2023-12-07T01:13:43;46.53;;;29.73;;
2213;SDS011;1113;42.018;23.986;2023-12-07T01:16:11;47.85;;;30.17;;
2213;SDS011;1113;42.018;23.986;2023-12-07T01:18:38;52.30;;;31.38;;
2213;SDS011;1113;42.018;23.986;2023-12-07T01:21:06;47.55;;;28.95;;
2213;SDS011;1113;42.018;23.986;2023-12-07T01:23:33;52.55;;;31.60;;
2213;SDS011;1113;42.018;23.986;2023-12-07T01:26:01;39.03;;;26.58;;
2213;SDS011;1113;42.018;23.986;2023-12-07T01:28:28;41.72;;;26.20;;
2213;SDS011;1113;42.018;23.986;2023-12-07T01:30:58;46.20;;;29.05;;
2213;SDS011;1113;42.018;23.986;2023-12-07T01:33:26;44.65;;;28.85;;
2213;SDS011;1113;42.018;23.986;2023-12-07T01:35:53;40.42;;;26.33;;
2213;SDS011;1113;42.018;23.986;2023-12-07T01:38:20;42.80;;;29.70;;
2213;SDS011;1113;42.018;23.986;2023-12-07T01:40:47;46.65;;;29.60;;
2213;SDS011;1113;42.018;23.986;2023-12-07T01:43:15;41.10;;;26.77;;
2213;SDS011;1113;42.018;23.986;2023-12-07T01:45:42;47.33;;;30.58;;
2213;SDS011;1113;42.018;23.986;2023-12-07T01:48:11;57.15;;;31.73;;
2213;SDS011;1113;42.018;23.986;2023-12-07T01:50:38;45.38;;;29.75;;
2213;SDS011;1113;42.018;23.986;2023-12-07T01:53:06;39.42;;;30.00;;
2213;SDS011;1113;42.018;23.986;2023-12-07T01:55:33;40.83;;;28.63;;
2213;SDS011;1113;42.018;23.986;2023-12-07T01:58:01;43.10;;;29.25;;
2213;SDS011;1113;42.018;23.986;2023-12-07T02:00:29;42.30;;;28.45;;
2213;SDS011;1113;42.018;23.986;2023-12-07T02:02:57;45.97;;;29.15;;
2213;SDS011;1113;42.018;23.986;2023-12-07T02:05:26;35.78;;;25.05;;
2213;SDS011;1113;42.018;23.986;2023-12-07T02:07:54;45.60;;;27.92;;
2213;SDS011;1113;42.018;23.986;2023-12-07T02:10:21;34.70;;;22.67;;
2213;SDS011;1113;42.018;23.986;2023-12-07T02:12:49;31.00;;;21.73;;
2213;SDS011;1113;42.018;23.986;2023-12-07T02:15:16;37.42;;;23.50;;
2213;SDS011;1113;42.018;23.986;2023-12-07T02:17:47;32.70;;;21.98;;
2213;SDS011;1113;42.018;23.986;2023-12-07T02:20:21;37.35;;;24.77;;
2213;SDS011;1113;42.018;23.986;2023-12-07T02:22:56;39.00;;;26.05;;
2213;SDS011;1113;42.018;23.986;2023-12-07T02:25:29;38.65;;;23.70;;
2213;SDS011;1113;42.018;23.986;2023-12-07T02:28:03;38.35;;;25.65;;
2213;SDS011;1113;42.018;23.986;2023-12-07T02:30:31;41.42;;;26.60;;
2213;SDS011;1113;42.018;23.986;2023-12-07T02:32:59;47.08;;;28.27;;
2213;SDS011;1113;42.018;23.986;2023-12-07T02:35:27;40.53;;;26.38;;
2213;SDS011;1113;42.018;23.986;2023-12-07T02:37:55;37.97;;;24.58;;
2213;SDS011;1113;42.018;23.986;2023-12-07T02:40:23;38.63;;;24.90;;
2213;SDS011;1113;42.018;23.986;2023-12-07T02:42:52;39.97;;;22.35;;
2213;SDS011;1113;42.018;23.986;2023-12-07T02:45:22;33.40;;;21.63;;
2213;SDS011;1113;42.018;23.986;2023-12-07T02:47:51;38.47;;;22.77;;
2213;SDS011;1113;42.018;23.986;2023-12-07T02:50:18;37.00;;;23.73;;
2213;SDS011;1113;42.018;23.986;2023-12-07T02:52:45;40.83;;;22.92;;
2213;SDS011;1113;42.018;23.986;2023-12-07T02:55:13;43.55;;;23.38;;
2213;SDS011;1113;42.018;23.986;2023-12-07T02:57:40;37.63;;;23.48;;
2213;SDS011;1113;42.018;23.986;2023-12-07T03:00:08;50.20;;;27.75;;
2213;SDS011;1113;42.018;23.986;2023-12-07T03:02:39;51.67;;;27.73;;
2213;SDS011;1113;42.018;23.986;2023-12-07T03:05:07;54.45;;;27.70;;
2213;SDS011;1113;42.018;23.986;2023-12-07T03:07:35;49.25;;;27.15;;
2213;SDS011;1113;42.018;23.986;2023-12-07T03:10:02;51.25;;;30.42;;
2213;SDS011;1113;42.018;23.986;2023-12-07T03:12:30;44.95;;;28.38;;
2213;SDS011;1113;42.018;23.986;2023-12-07T03:14:58;60.17;;;28.40;;
2213;SDS011;1113;42.018;23.986;2023-12-07T03:17:25;56.38;;;29.98;;
2213;SDS011;1113;42.018;23.986;2023-12-07T03:19:54;63.83;;;32.25;;
2213;SDS011;1113;42.018;23.986;2023-12-07T03:22:21;55.88;;;30.65;;
2213;SDS011;1113;42.018;23.986;2023-12-07T03:24:50;52.08;;;29.08;;
2213;SDS011;1113;42.018;23.986;2023-12-07T03:27:18;53.65;;;30.17;;
2213;SDS011;1113;42.018;23.986;2023-12-07T03:29:44;51.80;;;28.75;;
2213;SDS011;1113;42.018;23.986;2023-12-07T03:32:11;73.35;;;35.70;;
2213;SDS011;1113;42.018;23.986;2023-12-07T03:34:39;53.78;;;32.20;;
2213;SDS011;1113;42.018;23.986;2023-12-07T03:37:08;58.58;;;32.15;;
2213;SDS011;1113;42.018;23.986;2023-12-07T03:39:35;56.50;;;32.13;;
2213;SDS011;1113;42.018;23.986;2023-12-07T03:42:03;56.70;;;29.70;;
2213;SDS011;1113;42.018;23.986;2023-12-07T03:44:30;60.00;;;33.15;;
2213;SDS011;1113;42.018;23.986;2023-12-07T03:46:57;52.97;;;28.33;;
2213;SDS011;1113;42.018;23.986;2023-12-07T03:49:25;53.28;;;29.63;;
2213;SDS011;1113;42.018;23.986;2023-12-07T03:51:52;51.10;;;29.02;;
2213;SDS011;1113;42.018;23.986;2023-12-07T03:54:20;55.17;;;30.27;;
2213;SDS011;1113;42.018;23.986;2023-12-07T03:56:48;53.45;;;29.02;;
2213;SDS011;1113;42.018;23.986;2023-12-07T03:59:15;67.65;;;34.25;;
2213;SDS011;1113;42.018;23.986;2023-12-07T04:01:43;61.40;;;31.35;;
2213;SDS011;1113;42.018;23.986;2023-12-07T04:04:10;65.43;;;32.75;;
2213;SDS011;1113;42.018;23.986;2023-12-07T04:06:37;57.58;;;31.80;;
2213;SDS011;1113;42.018;23.986;2023-12-07T04:09:05;64.00;;;31.73;;
2213;SDS011;1113;42.018;23.986;2023-12-07T04:11:34;58.92;;;30.80;;
2213;SDS011;1113;42.018;23.986;2023-12-07T04:14:01;55.38;;;29.55;;
2213;SDS011;1113;42.018;23.986;2023-12-07T04:16:29;55.08;;;31.20;;
2213;SDS011;1113;42.018;23.986;2023-12-07T04:18:56;61.08;;;32.10;;
2213;SDS011;1113;42.018;23.986;2023-12-07T04:21:24;66.90;;;33.67;;
2213;SDS011;1113;42.018;23.986;2023-12-07T04:23:51;58.55;;;32.00;;
2213;SDS011;1113;42.018;23.986;2023-12-07T04:26:18;55.50;;;31.13;;
2213;SDS011;1113;42.018;23.986;2023-12-07T04:28:47;52.22;;;31.05;;
2213;SDS011;1113;42.018;23.986;2023-12-07T04:31:14;47.45;;;28.80;;
2213;SDS011;1113;42.018;23.986;2023-12-07T04:33:42;50.55;;;26.95;;
2213;SDS011;1113;42.018;23.986;2023-12-07T04:36:09;61.65;;;29.95;;
2213;SDS011;1113;42.018;23.986;2023-12-07T04:38:37;49.30;;;29.15;;
2213;SDS011;1113;42.018;23.986;2023-12-07T04:41:05;53.55;;;27.50;;
2213;SDS011;1113;42.018;23.986;2023-12-07T04:43:32;56.70;;;29.33;;
2213;SDS011;1113;42.018;23.986;2023-12-07T04:46:01;55.03;;;28.90;;
2213;SDS011;1113;42.018;23.986;2023-12-07T04:48:29;59.63;;;28.48;;
2213;SDS011;1113;42.018;23.986;2023-12-07T04:50:56;50.42;;;28.80;;
2213;SDS011;1113;42.018;23.986;2023-12-07T04:53:23;50.38;;;30.05;;
2213;SDS011;1113;42.018;23.986;2023-12-07T04:55:51;54.08;;;32.63;;
2213;SDS011;1113;42.018;23.986;2023-12-07T04:58:18;54.70;;;29.83;;
2213;SDS011;1113;42.018;23.986;2023-12-07T05:00:45;43.13;;;28.48;;
2213;SDS011;1113;42.018;23.986;2023-12-07T05:03:14;54.70;;;32.72;;
2213;SDS011;1113;42.018;23.986;2023-12-07T05:05:41;60.97;;;35.10;;
2213;SDS011;1113;42.018;23.986;2023-12-07T05:08:08;71.10;;;34.55;;
2213;SDS011;1113;42.018;23.986;2023-12-07T05:10:36;58.33;;;34.45;;
2213;SDS011;1113;42.018;23.986;2023-12-07T05:13:03;62.22;;;34.60;;
2213;SDS011;1113;42.018;23.986;2023-12-07T05:15:30;59.25;;;34.75;;
2213;SDS011;1113;42.018;23.986;2023-12-07T05:17:57;50.92;;;33.22;;
2213;SDS011;1113;42.018;23.986;2023-12-07T05:20:26;62.70;;;38.53;;
2213;SDS011;1113;42.018;23.986;2023-12-07T05:22:54;57.67;;;37.72;;
2213;SDS011;1113;42.018;23.986;2023-12-07T05:25:21;57.22;;;35.78;;
2213;SDS011;1113;42.018;23.986;2023-12-07T05:27:49;65.32;;;40.22;;
2213;SDS011;1113;42.018;23.986;2023-12-07T05:30:16;70.00;;;43.20;;
2213;SDS011;1113;42.018;23.986;2023-12-07T05:32:43;69.93;;;40.15;;
2213;SDS011;1113;42.018;23.986;2023-12-07T05:35:11;73.88;;;42.80;;
2213;SDS011;1113;42.018;23.986;2023-12-07T05:37:39;63.95;;;37.25;;
2213;SDS011;1113;42.018;23.986;2023-12-07T05:40:07;60.25;;;35.17;;
2213;SDS011;1113;42.018;23.986;2023-12-07T05:42:37;62.85;;;35.38;;
2213;SDS011;1113;42.018;23.986;2023-12-07T05:45:05;70.63;;;39.72;;
2213;SDS011;1113;42.018;23.986;2023-12-07T05:47:35;70.15;;;44.30;;
2213;SDS011;1113;42.018;23.986;2023-12-07T05:50:03;65.78;;;39.20;;
2213;SDS011;1113;42.018;23.986;2023-12-07T05:52:31;80.43;;;45.80;;
2213;SDS011;1113;42.018;23.986;2023-12-07T05:55:00;74.07;;;43.03;;
2213;SDS011;1113;42.018;23.986;2023-12-07T05:57:28;64.22;;;37.13;;
2213;SDS011;1113;42.018;23.986;2023-12-07T05:59:56;76.70;;;30.30;;
2213;SDS011;1113;42.018;23.986;2023-12-07T06:02:23;65.53;;;31.25;;
2213;SDS011;1113;42.018;23.986;2023-12-07T06:04:52;52.63;;;30.10;;
2213;SDS011;1113;42.018;23.986;2023-12-07T06:07:20;71.82;;;38.10;;
2213;SDS011;1113;42.018;23.986;2023-12-07T06:09:48;98.28;;;40.47;;
2213;SDS011;1113;42.018;23.986;2023-12-07T06:12:17;67.18;;;36.95;;
2213;SDS011;1113;42.018;23.986;2023-12-07T06:14:44;75.25;;;34.97;;
2213;SDS011;1113;42.018;23.986;2023-12-07T06:17:11;60.25;;;30.73;;
2213;SDS011;1113;42.018;23.986;2023-12-07T06:19:38;46.72;;;27.30;;
2213;SDS011;1113;42.018;23.986;2023-12-07T06:22:06;60.72;;;29.42;;
2213;SDS011;1113;42.018;23.986;2023-12-07T06:24:33;49.40;;;26.08;;
2213;SDS011;1113;42.018;23.986;2023-12-07T06:27:01;45.13;;;23.77;;
2213;SDS011;1113;42.018;23.986;2023-12-07T06:29:31;46.17;;;25.33;;
2213;SDS011;1113;42.018;23.986;2023-12-07T06:31:58;46.10;;;25.50;;
2213;SDS011;1113;42.018;23.986;2023-12-07T06:34:26;44.17;;;26.02;;
2213;SDS011;1113;42.018;23.986;2023-12-07T06:36:54;46.95;;;26.42;;
2213;SDS011;1113;42.018;23.986;2023-12-07T06:39:21;41.80;;;23.40;;
2213;SDS011;1113;42.018;23.986;2023-12-07T06:41:49;43.17;;;25.95;;
2213;SDS011;1113;42.018;23.986;2023-12-07T06:44:16;39.45;;;23.55;;
2213;SDS011;1113;42.018;23.986;2023-12-07T06:46:45;44.33;;;25.52;;
2213;SDS011;1113;42.018;23.986;2023-12-07T06:49:13;54.42;;;26.52;;
2213;SDS011;1113;42.018;23.986;2023-12-07T06:51:40;47.03;;;26.58;;
2213;SDS011;1113;42.018;23.986;2023-12-07T06:54:08;52.20;;;26.58;;
2213;SDS011;1113;42.018;23.986;2023-12-07T06:56:35;50.25;;;25.63;;
2213;SDS011;1113;42.018;23.986;2023-12-07T06:59:02;56.88;;;27.52;;
2213;SDS011;1113;42.018;23.986;2023-12-07T07:01:46;51.80;;;28.75;;
2213;SDS011;1113;42.018;23.986;2023-12-07T07:04:14;47.55;;;25.05;;
2213;SDS011;1113;42.018;23.986;2023-12-07T07:06:42;47.38;;;28.05;;
2213;SDS011;1113;42.018;23.986;2023-12-07T07:09:09;45.63;;;27.50;;
2213;SDS011;1113;42.018;23.986;2023-12-07T07:11:37;45.92;;;26.58;;
2213;SDS011;1113;42.018;23.986;2023-12-07T07:14:05;43.08;;;27.98;;
2213;SDS011;1113;42.018;23.986;2023-12-07T07:16:32;46.35;;;26.77;;
2213;SDS011;1113;42.018;23.986;2023-12-07T07:19:01;46.28;;;28.92;;
2213;SDS011;1113;42.018;23.986;2023-12-07T07:21:28;50.33;;;29.05;;
2213;SDS011;1113;42.018;23.986;2023-12-07T07:23:55;57.60;;;33.80;;
2213;SDS011;1113;42.018;23.986;2023-12-07T07:26:23;57.45;;;31.75;;
2213;SDS011;1113;42.018;23.986;2023-12-07T07:28:50;61.63;;;33.10;;
2213;SDS011;1113;42.018;23.986;2023-12-07T07:31:18;63.20;;;35.88;;
2213;SDS011;1113;42.018;23.986;2023-12-07T07:33:45;64.75;;;34.30;;
2213;SDS011;1113;42.018;23.986;2023-12-07T07:36:15;68.80;;;38.97;;
2213;SDS011;1113;42.018;23.986;2023-12-07T07:38:42;74.38;;;39.92;;
2213;SDS011;1113;42.018;23.986;2023-12-07T07:41:10;79.78;;;39.33;;
2213;SDS011;1113;42.018;23.986;2023-12-07T07:43:38;70.30;;;39.20;;
2213;SDS011;1113;42.018;23.986;2023-12-07T07:46:05;72.00;;;41.53;;
2213;SDS011;1113;42.018;23.986;2023-12-07T07:48:34;67.53;;;40.78;;
2213;SDS011;1113;42.018;23.986;2023-12-07T07:51:01;78.90;;;42.42;;
2213;SDS011;1113;42.018;23.986;2023-12-07T07:53:30;72.80;;;42.53;;
2213;SDS011;1113;42.018;23.986;2023-12-07T07:55:58;73.78;;;42.50;;
2213;SDS011;1113;42.018;23.986;2023-12-07T07:58:25;68.32;;;39.72;;
2213;SDS011;1113;42.018;23.986;2023-12-07T08:00:52;74.05;;;42.47;;
2213;SDS011;1113;42.018;23.986;2023-12-07T08:03:19;73.28;;;42.45;;
2213;SDS011;1113;42.018;23.986;2023-12-07T08:05:47;78.72;;;42.63;;
2213;SDS011;1113;42.018;23.986;2023-12-07T08:08:14;81.75;;;45.97;;
2213;SDS011;1113;42.018;23.986;2023-12-07T08:10:43;77.18;;;45.78;;
2213;SDS011;1113;42.018;23.986;2023-12-07T08:13:11;86.35;;;49.75;;
2213;SDS011;1113;42.018;23.986;2023-12-07T08:15:38;96.78;;;54.67;;
2213;SDS011;1113;42.018;23.986;2023-12-07T08:18:06;90.32;;;52.97;;
2213;SDS011;1113;42.018;23.986;2023-12-07T08:20:34;106.60;;;57.08;;
2213;SDS011;1113;42.018;23.986;2023-12-07T08:23:01;108.82;;;61.47;;
2213;SDS011;1113;42.018;23.986;2023-12-07T08:25:29;118.78;;;65.50;;
2213;SDS011;1113;42.018;23.986;2023-12-07T08:27:59;122.35;;;68.85;;
2213;SDS011;1113;42.018;23.986;2023-12-07T08:30:26;132.77;;;69.25;;
2213;SDS011;1113;42.018;23.986;2023-12-07T08:32:53;117.90;;;67.45;;
2213;SDS011;1113;42.018;23.986;2023-12-07T08:35:20;124.05;;;69.63;;
2213;SDS011;1113;42.018;23.986;2023-12-07T08:37:48;123.28;;;66.15;;
2213;SDS011;1113;42.018;23.986;2023-12-07T08:40:15;128.80;;;70.60;;
2213;SDS011;1113;42.018;23.986;2023-12-07T08:42:45;129.95;;;69.65;;
2213;SDS011;1113;42.018;23.986;2023-12-07T08:45:15;130.05;;;69.13;;
2213;SDS011;1113;42.018;23.986;2023-12-07T08:47:43;121.82;;;69.75;;
2213;SDS011;1113;42.018;23.986;2023-12-07T08:50:10;113.53;;;66.72;;
2213;SDS011;1113;42.018;23.986;2023-12-07T08:52:37;124.22;;;71.35;;
2213;SDS011;1113;42.018;23.986;2023-12-07T08:55:05;123.28;;;70.82;;
2213;SDS011;1113;42.018;23.986;2023-12-07T08:57:33;109.80;;;60.30;;
2213;SDS011;1113;42.018;23.986;2023-12-07T09:00:01;118.70;;;64.40;;
2213;SDS011;1113;42.018;23.986;2023-12-07T09:02:29;104.50;;;57.28;;
2213;SDS011;1113;42.018;23.986;2023-12-07T09:04:57;100.80;;;54.65;;
2213;SDS011;1113;42.018;23.986;2023-12-07T09:07:24;74.80;;;44.78;;
2213;SDS011;1113;42.018;23.986;2023-12-07T09:09:51;64.38;;;37.83;;
2213;SDS011;1113;42.018;23.986;2023-12-07T09:12:19;61.45;;;39.88;;
2213;SDS011;1113;42.018;23.986;2023-12-07T09:14:46;65.82;;;38.03;;
2213;SDS011;1113;42.018;23.986;2023-12-07T09:17:13;62.78;;;38.60;;
2213;SDS011;1113;42.018;23.986;2023-12-07T09:19:42;71.05;;;42.40;;
2213;SDS011;1113;42.018;23.986;2023-12-07T09:22:11;57.17;;;37.10;;
2213;SDS011;1113;42.018;23.986;2023-12-07T09:24:41;59.65;;;38.88;;
2213;SDS011;1113;42.018;23.986;2023-12-07T09:27:08;61.30;;;39.28;;
2213;SDS011;1113;42.018;23.986;2023-12-07T09:29:35;75.73;;;50.20;;
2213;SDS011;1113;42.018;23.986;2023-12-07T09:32:04;80.40;;;50.50;;
2213;SDS011;1113;42.018;23.986;2023-12-07T09:34:32;74.30;;;47.90;;
2213;SDS011;1113;42.018;23.986;2023-12-07T09:37:09;67.30;;;42.80;;
2213;SDS011;1113;42.018;23.986;2023-12-07T09:39:37;68.43;;;42.97;;
2213;SDS011;1113;42.018;23.986;2023-12-07T09:42:04;70.33;;;45.00;;
2213;SDS011;1113;42.018;23.986;2023-12-07T09:44:32;77.80;;;49.70;;
2213;SDS011;1113;42.018;23.986;2023-12-07T09:46:59;71.43;;;48.60;;
2213;SDS011;1113;42.018;23.986;2023-12-07T09:49:27;79.00;;;49.63;;
2213;SDS011;1113;42.018;23.986;2023-12-07T09:51:56;78.00;;;46.90;;
2213;SDS011;1113;42.018;23.986;2023-12-07T09:54:27;75.50;;;44.03;;
2213;SDS011;1113;42.018;23.986;2023-12-07T09:56:57;61.07;;;40.93;;
2213;SDS011;1113;42.018;23.986;2023-12-07T09:59:24;72.87;;;43.60;;
2213;SDS011;1113;42.018;23.986;2023-12-07T10:01:51;71.33;;;44.80;;
2213;SDS011;1113;42.018;23.986;2023-12-07T10:04:19;71.57;;;44.80;;
2213;SDS011;1113;42.018;23.986;2023-12-07T10:06:51;73.07;;;47.43;;
2213;SDS011;1113;42.018;23.986;2023-12-07T10:09:19;66.17;;;43.10;;
2213;SDS011;1113;42.018;23.986;2023-12-07T10:11:49;58.97;;;39.20;;
2213;SDS011;1113;42.018;23.986;2023-12-07T10:14:17;56.37;;;38.63;;
2213;SDS011;1113;42.018;23.986;2023-12-07T10:16:52;58.40;;;37.17;;
2213;SDS011;1113;42.018;23.986;2023-12-07T10:19:22;43.40;;;27.13;;
2213;SDS011;1113;42.018;23.986;2023-12-07T10:21:50;41.67;;;26.40;;
2213;SDS011;1113;42.018;23.986;2023-12-07T10:24:18;45.90;;;32.57;;
2213;SDS011;1113;42.018;23.986;2023-12-07T10:26:49;53.90;;;36.60;;
2213;SDS011;1113;42.018;23.986;2023-12-07T10:29:17;56.70;;;39.87;;
2213;SDS011;1113;42.018;23.986;2023-12-07T10:31:45;58.23;;;38.57;;
2213;SDS011;1113;42.018;23.986;2023-12-07T10:34:13;43.60;;;29.07;;
2213;SDS011;1113;42.018;23.986;2023-12-07T10:36:46;49.10;;;32.40;;
2213;SDS011;1113;42.018;23.986;2023-12-07T10:39:14;57.13;;;37.60;;
2213;SDS011;1113;42.018;23.986;2023-12-07T10:41:43;52.23;;;36.37;;
2213;SDS011;1113;42.018;23.986;2023-12-07T10:44:13;63.50;;;41.07;;
2213;SDS011;1113;42.018;23.986;2023-12-07T10:46:42;62.70;;;38.10;;
2213;SDS011;1113;42.018;23.986;2023-12-07T10:49:19;55.37;;;36.40;;
2213;SDS011;1113;42.018;23.986;2023-12-07T10:51:49;65.00;;;40.10;;
2213;SDS011;1113;42.018;23.986;2023-12-07T10:54:24;58.60;;;38.03;;
2213;SDS011;1113;42.018;23.986;2023-12-07T10:56:59;40.80;;;27.20;;
2213;SDS011;1113;42.018;23.986;2023-12-07T10:59:32;41.03;;;25.30;;
2213;SDS011;1113;42.018;23.986;2023-12-07T11:02:01;50.47;;;35.00;;
2213;SDS011;1113;42.018;23.986;2023-12-07T11:04:31;48.10;;;31.90;;
2213;SDS011;1113;42.018;23.986;2023-12-07T11:07:00;49.10;;;33.43;;
2213;SDS011;1113;42.018;23.986;2023-12-07T11:09:32;42.53;;;30.60;;
2213;SDS011;1113;42.018;23.986;2023-12-07T11:12:06;49.60;;;35.53;;
2213;SDS011;1113;42.018;23.986;2023-12-07T11:14:40;60.77;;;41.47;;
2213;SDS011;1113;42.018;23.986;2023-12-07T11:17:08;56.23;;;41.13;;
2213;SDS011;1113;42.018;23.986;2023-12-07T11:19:48;61.10;;;41.30;;
2213;SDS011;1113;42.018;23.986;2023-12-07T11:22:16;61.50;;;41.47;;
2213;SDS011;1113;42.018;23.986;2023-12-07T11:24:52;43.57;;;31.17;;
2213;SDS011;1113;42.018;23.986;2023-12-07T11:27:22;46.30;;;32.13;;
2213;SDS011;1113;42.018;23.986;2023-12-07T11:29:52;43.30;;;33.03;;
2213;SDS011;1113;42.018;23.986;2023-12-07T11:32:19;45.53;;;34.90;;
2213;SDS011;1113;42.018;23.986;2023-12-07T11:34:47;33.13;;;23.87;;
2213;SDS011;1113;42.018;23.986;2023-12-07T11:37:14;22.50;;;16.30;;
2213;SDS011;1113;42.018;23.986;2023-12-07T11:39:42;18.83;;;14.07;;
2213;SDS011;1113;42.018;23.986;2023-12-07T11:42:11;19.10;;;15.27;;
2213;SDS011;1113;42.018;23.986;2023-12-07T11:44:41;23.37;;;14.97;;
2213;SDS011;1113;42.018;23.986;2023-12-07T11:47:14;17.50;;;12.63;;
2213;SDS011;1113;42.018;23.986;2023-12-07T11:49:42;18.50;;;12.07;;
2213;SDS011;1113;42.018;23.986;2023-12-07T11:52:13;16.50;;;12.07;;
2213;SDS011;1113;42.018;23.986;2023-12-07T11:54:43;19.50;;;13.57;;
2213;SDS011;1113;42.018;23.986;2023-12-07T11:57:11;19.10;;;14.53;;
2213;SDS011;1113;42.018;23.986;2023-12-07T11:59:39;15.63;;;12.23;;
2213;SDS011;1113;42.018;23.986;2023-12-07T12:02:06;15.90;;;11.83;;
2213;SDS011;1113;42.018;23.986;2023-12-07T12:04:35;14.40;;;10.63;;
2213;SDS011;1113;42.018;23.986;2023-12-07T12:07:03;16.03;;;10.47;;
2213;SDS011;1113;42.018;23.986;2023-12-07T12:09:31;14.40;;;10.93;;
2213;SDS011;1113;42.018;23.986;2023-12-07T12:11:59;14.30;;;11.43;;
2213;SDS011;1113;42.018;23.986;2023-12-07T12:14:27;17.00;;;13.50;;
2213;SDS011;1113;42.018;23.986;2023-12-07T12:16:54;20.70;;;13.80;;
2213;SDS011;1113;42.018;23.986;2023-12-07T12:19:22;20.20;;;10.20;;
2213;SDS011;1113;42.018;23.986;2023-12-07T12:21:52;21.43;;;14.30;;
2213;SDS011;1113;42.018;23.986;2023-12-07T12:24:21;16.40;;;11.30;;
2213;SDS011;1113;42.018;23.986;2023-12-07T12:26:48;16.93;;;11.47;;
2213;SDS011;1113;42.018;23.986;2023-12-07T12:29:16;16.30;;;11.30;;
2213;SDS011;1113;42.018;23.986;2023-12-07T12:31:44;19.20;;;13.23;;
2213;SDS011;1113;42.018;23.986;2023-12-07T12:34:12;18.30;;;12.80;;
2213;SDS011;1113;42.018;23.986;2023-12-07T12:36:39;22.63;;;14.77;;
2213;SDS011;1113;42.018;23.986;2023-12-07T12:39:08;23.07;;;15.60;;
2213;SDS011;1113;42.018;23.986;2023-12-07T12:41:35;18.20;;;13.20;;
2213;SDS011;1113;42.018;23.986;2023-12-07T12:44:04;17.97;;;12.30;;
2213;SDS011;1113;42.018;23.986;2023-12-07T12:46:32;17.90;;;13.27;;
2213;SDS011;1113;42.018;23.986;2023-12-07T12:49:02;27.30;;;19.80;;
2213;SDS011;1113;42.018;23.986;2023-12-07T12:51:29;24.10;;;15.70;;
2213;SDS011;1113;42.018;23.986;2023-12-07T12:53:58;29.13;;;19.00;;
2213;SDS011;1113;42.018;23.986;2023-12-07T12:56:27;25.43;;;15.33;;
2213;SDS011;1113;42.018;23.986;2023-12-07T12:58:54;16.53;;;10.60;;
2213;SDS011;1113;42.018;23.986;2023-12-07T13:01:22;16.67;;;10.17;;
2213;SDS011;1113;42.018;23.986;2023-12-07T13:03:50;17.97;;;12.73;;
2213;SDS011;1113;42.018;23.986;2023-12-07T13:06:17;17.17;;;12.20;;
2213;SDS011;1113;42.018;23.986;2023-12-07T13:08:45;14.80;;;11.17;;
2213;SDS011;1113;42.018;23.986;2023-12-07T13:11:14;17.33;;;11.10;;
2213;SDS011;1113;42.018;23.986;2023-12-07T13:13:44;18.13;;;13.03;;
2213;SDS011;1113;42.018;23.986;2023-12-07T13:16:12;16.80;;;10.70;;
2213;SDS011;1113;42.018;23.986;2023-12-07T13:18:40;11.23;;;8.33;;
2213;SDS011;1113;42.018;23.986;2023-12-07T13:21:07;12.10;;;8.40;;
2213;SDS011;1113;42.018;23.986;2023-12-07T13:23:35;8.83;;;6.60;;
2213;SDS011;1113;42.018;23.986;2023-12-07T13:26:02;11.43;;;7.20;;
2213;SDS011;1113;42.018;23.986;2023-12-07T13:28:31;11.10;;;7.60;;
2213;SDS011;1113;42.018;23.986;2023-12-07T13:31:00;12.03;;;8.30;;
2213;SDS011;1113;42.018;23.986;2023-12-07T13:33:27;22.80;;;14.10;;
2213;SDS011;1113;42.018;23.986;2023-12-07T13:35:54;18.73;;;13.63;;
2213;SDS011;1113;42.018;23.986;2023-12-07T13:38:22;11.63;;;9.43;;
2213;SDS011;1113;42.018;23.986;2023-12-07T13:40:49;12.50;;;9.40;;
2213;SDS011;1113;42.018;23.986;2023-12-07T13:43:16;17.07;;;11.53;;
2213;SDS011;1113;42.018;23.986;2023-12-07T13:45:43;21.87;;;14.43;;
2213;SDS011;1113;42.018;23.986;2023-12-07T13:48:11;16.27;;;12.33;;
2213;SDS011;1113;42.018;23.986;2023-12-07T13:50:39;23.93;;;13.10;;
2213;SDS011;1113;42.018;23.986;2023-12-07T13:53:06;14.67;;;11.27;;
2213;SDS011;1113;42.018;23.986;2023-12-07T13:55:35;20.10;;;13.70;;
2213;SDS011;1113;42.018;23.986;2023-12-07T13:58:02;15.70;;;11.40;;
2213;SDS011;1113;42.018;23.986;2023-12-07T14:00:31;16.67;;;11.00;;
2213;SDS011;1113;42.018;23.986;2023-12-07T14:02:59;15.03;;;11.70;;
2213;SDS011;1113;42.018;23.986;2023-12-07T14:05:27;15.50;;;11.00;;
2213;SDS011;1113;42.018;23.986;2023-12-07T14:07:55;12.40;;;10.00;;
2213;SDS011;1113;42.018;23.986;2023-12-07T14:10:22;18.80;;;12.07;;
2213;SDS011;1113;42.018;23.986;2023-12-07T14:12:49;19.47;;;13.47;;
2213;SDS011;1113;42.018;23.986;2023-12-07T14:15:17;18.57;;;13.07;;
2213;SDS011;1113;42.018;23.986;2023-12-07T14:17:44;15.10;;;11.60;;
2213;SDS011;1113;42.018;23.986;2023-12-07T14:20:11;18.87;;;12.73;;
2213;SDS011;1113;42.018;23.986;2023-12-07T14:22:40;41.90;;;24.17;;
2213;SDS011;1113;42.018;23.986;2023-12-07T14:25:07;53.70;;;30.00;;
2213;SDS011;1113;42.018;23.986;2023-12-07T14:27:36;41.60;;;24.00;;
2213;SDS011;1113;42.018;23.986;2023-12-07T14:30:03;43.30;;;25.43;;
2213;SDS011;1113;42.018;23.986;2023-12-07T14:32:31;29.97;;;21.30;;
2213;SDS011;1113;42.018;23.986;2023-12-07T14:34:57;34.47;;;24.90;;
2213;SDS011;1113;42.018;23.986;2023-12-07T14:37:24;34.27;;;23.27;;
2213;SDS011;1113;42.018;23.986;2023-12-07T14:39:52;25.53;;;19.40;;